Time;durP1;ratioP1;P1;durP2;ratioP2;P2;SDS_P1;SDS_P2;PMS_P1;PMS_P2;Temp;Humidity;BMP_temperature;BMP_pressure;BME280_temperature;BME280_humidity;BME280_pressure;Samples;Min_cycle;Max_cycle;Signal;HPM_P1;HPM_P2
2022/08/23 00:01:56;;;;;;;1.60;0.60;;;19.60;99.90;;;;;;5009446;28;20285;-72
2022/08/23 00:04:28;;;;;;;2.67;0.93;;;19.80;99.90;;;;;;5009898;28;20203;-68
2022/08/23 00:07:00;;;;;;;1.08;0.70;;;19.90;99.90;;;;;;5011493;28;20202;-68
2022/08/23 00:09:31;;;;;;;1.42;0.60;;;20.20;99.90;;;;;;5010339;28;20194;-68
2022/08/23 00:12:12;;;;;;;1.38;0.60;;;20.30;99.90;;;;;;5006618;28;20205;-68
2022/08/23 00:14:46;;;;;;;1.75;0.47;;;20.40;99.90;;;;;;5007551;28;20228;-68
2022/08/23 00:17:17;;;;;;;1.30;0.52;;;20.50;99.90;;;;;;5003806;28;20281;-67
2022/08/23 00:19:48;;;;;;;1.65;0.52;;;20.70;99.90;;;;;;5003636;28;20282;-70
2022/08/23 00:22:19;;;;;;;1.10;0.65;;;20.80;99.90;;;;;;5008146;28;20709;-69
2022/08/23 00:24:50;;;;;;;1.27;0.60;;;20.90;99.90;;;;;;5007322;28;20194;-68
2022/08/23 00:27:22;;;;;;;2.22;0.65;;;20.90;99.90;;;;;;4998144;28;20206;-70
2022/08/23 00:29:55;;;;;;;4.28;1.10;;;21.00;99.90;;;;;;5000026;28;20670;-67
2022/08/23 00:32:28;;;;;;;3.10;0.70;;;21.10;99.90;;;;;;5003821;28;20184;-68
2022/08/23 00:35:00;;;;;;;0.82;0.50;;;21.10;99.90;;;;;;5008121;28;20218;-75
2022/08/23 00:37:33;;;;;;;1.65;0.60;;;21.10;99.90;;;;;;5006506;28;20227;-72
2022/08/23 00:40:04;;;;;;;2.13;0.60;;;21.10;99.90;;;;;;5005478;28;20198;-67
2022/08/23 00:48:35;;;;;;;2.25;0.85;;;21.40;99.90;;;;;;5014621;28;20190;-68
2022/08/23 00:51:14;;;;;;;1.48;0.57;;;21.40;99.90;;;;;;5004975;28;20202;-68
2022/08/23 00:53:49;;;;;;;1.00;0.60;;;21.40;99.90;;;;;;5009244;28;20218;-68
2022/08/23 00:56:23;;;;;;;1.35;0.70;;;21.50;99.90;;;;;;5008741;28;20278;-68
2022/08/23 00:58:56;;;;;;;1.25;0.75;;;21.60;99.90;;;;;;5006568;28;20218;-70
2022/08/23 01:01:27;;;;;;;1.40;0.70;;;21.60;99.90;;;;;;5008862;28;20201;-67
2022/08/23 01:04:00;;;;;;;4.18;2.13;;;21.70;99.90;;;;;;5005677;28;20187;-68
2022/08/23 01:06:38;;;;;;;0.85;0.70;;;21.80;99.90;;;;;;5007514;28;20196;-67
2022/08/23 01:09:12;;;;;;;1.77;0.60;;;21.80;99.90;;;;;;5008526;28;20202;-68
2022/08/23 01:11:49;;;;;;;0.90;0.60;;;21.80;99.90;;;;;;5007107;28;20202;-68
2022/08/23 01:14:29;;;;;;;1.40;0.63;;;21.80;99.90;;;;;;5008792;28;20344;-68
2022/08/23 01:17:04;;;;;;;1.13;0.70;;;22.00;99.90;;;;;;5003984;28;20602;-68
2022/08/23 01:19:38;;;;;;;1.48;0.63;;;22.00;99.90;;;;;;5005788;28;20191;-68
2022/08/23 01:22:19;;;;;;;1.90;0.80;;;22.00;99.90;;;;;;5004689;28;20219;-68
2022/08/23 01:24:52;;;;;;;1.35;0.68;;;22.00;99.90;;;;;;5007849;28;20665;-68
2022/08/23 01:27:23;;;;;;;1.27;0.60;;;21.90;99.90;;;;;;5002612;28;20194;-68
2022/08/23 01:29:54;;;;;;;1.25;0.82;;;22.00;99.90;;;;;;5005739;28;20191;-68
2022/08/23 01:32:26;;;;;;;1.80;0.70;;;22.20;99.90;;;;;;5003422;28;20194;-68
2022/08/23 01:34:56;;;;;;;1.80;0.60;;;22.20;99.90;;;;;;5005157;28;20697;-68
2022/08/23 01:37:27;;;;;;;2.72;0.90;;;22.40;99.90;;;;;;5005471;28;20234;-67
2022/08/23 01:40:00;;;;;;;1.02;0.50;;;22.50;99.90;;;;;;5008112;28;20416;-67
2022/08/23 01:42:31;;;;;;;0.98;0.60;;;22.50;99.90;;;;;;5007611;28;20647;-68
2022/08/23 01:45:01;;;;;;;2.22;0.70;;;22.50;99.90;;;;;;5006789;28;20217;-67
2022/08/23 01:47:32;;;;;;;1.42;0.60;;;22.60;99.90;;;;;;5009437;28;20191;-67
2022/08/23 01:50:03;;;;;;;2.33;0.80;;;22.40;99.90;;;;;;5006989;28;20187;-72
2022/08/23 01:52:34;;;;;;;1.80;1.00;;;22.60;99.90;;;;;;5006875;28;20275;-78
2022/08/23 01:55:07;;;;;;;1.92;0.63;;;22.60;99.90;;;;;;5006624;28;20221;-79
2022/08/23 01:57:38;;;;;;;2.10;0.90;;;22.40;99.90;;;;;;5011396;28;20191;-80
2022/08/23 02:00:11;;;;;;;2.55;0.70;;;22.30;99.90;;;;;;5007921;28;20196;-76
2022/08/23 02:02:42;;;;;;;2.63;0.95;;;22.20;99.90;;;;;;5009912;28;20239;-75
2022/08/23 02:05:13;;;;;;;2.13;0.80;;;22.10;99.90;;;;;;5005393;28;20191;-78
2022/08/23 02:07:43;;;;;;;0.93;0.60;;;22.20;99.90;;;;;;5008004;28;20202;-80
2022/08/23 02:10:16;;;;;;;2.60;0.90;;;22.30;99.90;;;;;;5005548;28;20194;-84
2022/08/23 02:12:47;;;;;;;2.20;0.88;;;22.40;99.90;;;;;;5005633;28;20187;-78
2022/08/23 02:15:19;;;;;;;1.63;0.85;;;22.50;99.90;;;;;;5005992;28;20222;-78
2022/08/23 02:17:49;;;;;;;1.40;0.77;;;22.50;99.90;;;;;;5009685;28;20193;-77
2022/08/23 02:20:20;;;;;;;2.92;0.82;;;22.20;99.90;;;;;;5012187;28;20582;-83
2022/08/23 02:22:51;;;;;;;1.95;0.85;;;21.90;99.90;;;;;;5001557;28;20211;-83
2022/08/23 02:25:24;;;;;;;2.20;0.90;;;21.60;99.90;;;;;;5006597;28;20214;-84
2022/08/23 02:27:55;;;;;;;1.73;0.98;;;21.20;99.90;;;;;;5009612;28;20195;-83
2022/08/23 02:30:26;;;;;;;2.85;0.90;;;20.90;99.90;;;;;;5005031;28;20187;-77
2022/08/23 02:32:57;;;;;;;5.97;1.10;;;20.60;99.90;;;;;;5002657;28;20191;-76
2022/08/23 02:35:28;;;;;;;3.97;1.00;;;20.00;99.90;;;;;;5001560;28;20270;-76
2022/08/23 02:37:59;;;;;;;5.07;1.48;;;19.10;99.90;;;;;;5006349;28;20231;-74
2022/08/23 02:40:32;;;;;;;3.78;1.40;;;18.50;99.90;;;;;;5009239;28;20198;-75
2022/08/23 02:43:03;;;;;;;3.53;1.20;;;18.10;99.90;;;;;;5007762;28;20202;-76
2022/08/23 02:45:34;;;;;;;2.10;1.08;;;18.00;99.90;;;;;;5008365;28;20202;-77
2022/08/23 02:48:04;;;;;;;3.10;1.00;;;17.80;99.90;;;;;;5001303;28;20997;-70
2022/08/23 02:50:35;;;;;;;2.72;1.10;;;17.80;99.90;;;;;;5008347;28;20199;-70
2022/08/23 02:53:07;;;;;;;4.53;1.08;;;17.80;99.90;;;;;;5003858;28;20202;-69
2022/08/23 02:55:39;;;;;;;3.55;1.25;;;17.70;99.90;;;;;;5007590;28;20265;-69
2022/08/23 02:58:10;;;;;;;5.70;1.48;;;17.80;99.90;;;;;;5006482;28;20195;-69
2022/08/23 03:00:41;;;;;;;3.88;1.20;;;17.70;99.90;;;;;;5005971;28;20666;-69
2022/08/23 03:03:12;;;;;;;9.40;3.90;;;17.70;99.90;;;;;;5002602;28;20189;-73
2022/08/23 03:05:43;;;;;;;15.45;6.55;;;17.30;99.90;;;;;;5006305;28;20194;-68
2022/08/23 03:08:14;;;;;;;11.02;1.92;;;16.30;99.90;;;;;;5003303;28;20191;-70
2022/08/23 03:10:49;;;;;;;5.18;1.27;;;15.80;99.90;;;;;;5004173;28;20183;-68
2022/08/23 03:13:20;;;;;;;6.38;1.10;;;15.50;99.90;;;;;;4998715;28;20217;-69
2022/08/23 03:15:51;;;;;;;8.85;0.98;;;15.10;99.90;;;;;;5005897;28;20602;-67
2022/08/23 03:18:22;;;;;;;5.78;1.05;;;14.90;99.90;;;;;;5008261;28;20203;-67
2022/08/23 03:20:52;;;;;;;4.10;1.00;;;14.80;99.90;;;;;;5001883;28;20197;-70
2022/08/23 03:23:23;;;;;;;7.97;1.00;;;14.80;99.90;;;;;;5005016;28;20218;-68
2022/08/23 03:25:57;;;;;;;6.55;1.25;;;14.70;99.90;;;;;;5003337;28;20195;-68
2022/08/23 03:28:29;;;;;;;4.40;0.90;;;14.70;99.90;;;;;;4999822;28;20205;-72
2022/08/23 03:31:00;;;;;;;5.32;0.90;;;14.70;99.90;;;;;;5006034;28;20199;-70
2022/08/23 03:33:30;;;;;;;7.03;1.00;;;14.60;99.90;;;;;;5006269;28;20541;-66
2022/08/23 03:36:02;;;;;;;5.05;0.90;;;14.60;99.90;;;;;;5005975;28;20219;-71
2022/08/23 03:38:32;;;;;;;6.53;1.02;;;14.50;99.90;;;;;;5007718;28;20221;-67
2022/08/23 03:41:05;;;;;;;7.72;1.35;;;14.40;99.90;;;;;;5007022;28;20209;-66
2022/08/23 03:43:36;;;;;;;3.00;0.60;;;14.30;99.90;;;;;;5004208;28;20205;-78
2022/08/23 03:46:07;;;;;;;4.13;0.60;;;14.10;99.90;;;;;;5005599;28;20203;-76
2022/08/23 03:48:40;;;;;;;5.20;0.95;;;14.00;99.90;;;;;;5007506;28;20203;-69
2022/08/23 03:51:10;;;;;;;2.95;0.60;;;13.90;99.90;;;;;;5007395;28;20203;-69
2022/08/23 03:53:41;;;;;;;3.35;0.70;;;13.70;99.90;;;;;;5008319;28;20191;-68
2022/08/23 03:56:22;;;;;;;3.33;0.80;;;13.50;99.90;;;;;;5006173;28;20218;-66
2022/08/23 03:58:53;;;;;;;5.10;0.80;;;13.40;99.90;;;;;;5006024;28;20207;-75
2022/08/23 04:01:24;;;;;;;3.72;0.60;;;13.30;99.90;;;;;;5007323;28;20203;-67
2022/08/23 04:03:58;;;;;;;2.78;0.80;;;13.10;99.90;;;;;;5003599;28;20670;-69
2022/08/23 04:06:31;;;;;;;5.85;0.68;;;13.00;99.90;;;;;;5004981;28;20206;-70
2022/08/23 04:09:03;;;;;;;2.92;0.85;;;12.90;99.90;;;;;;5006056;28;20203;-66
2022/08/23 04:11:35;;;;;;;2.33;0.80;;;12.80;99.90;;;;;;5007144;28;20201;-70
2022/08/23 04:14:06;;;;;;;4.03;0.63;;;12.70;99.90;;;;;;5004859;28;20207;-71
2022/08/23 04:16:39;;;;;;;5.68;0.70;;;12.50;99.90;;;;;;5005408;28;20222;-69
2022/08/23 04:19:11;;;;;;;4.22;0.80;;;12.40;99.90;;;;;;5005488;28;20191;-66
2022/08/23 04:21:45;;;;;;;5.47;0.70;;;12.30;99.90;;;;;;5001745;28;20199;-66
2022/08/23 04:24:16;;;;;;;6.15;0.90;;;12.20;99.90;;;;;;5004894;28;20203;-67
2022/08/23 04:26:49;;;;;;;5.57;0.80;;;12.10;99.90;;;;;;5005009;28;20702;-67
2022/08/23 04:29:20;;;;;;;3.60;1.13;;;12.00;99.90;;;;;;5006144;28;20257;-67
2022/08/23 04:31:51;;;;;;;7.25;0.90;;;12.00;99.90;;;;;;5004519;28;20249;-67
2022/08/23 04:34:22;;;;;;;4.82;0.70;;;12.00;99.90;;;;;;5003471;28;20218;-66
2022/08/23 04:36:52;;;;;;;2.47;0.55;;;11.80;99.90;;;;;;5003267;28;20592;-67
2022/08/23 04:39:23;;;;;;;2.35;0.63;;;11.60;99.90;;;;;;5007674;28;20203;-67
2022/08/23 04:44:43;;;;;;;3.45;0.80;;;11.20;99.90;;;;;;5004936;28;20215;-67
2022/08/23 04:47:13;;;;;;;2.50;0.70;;;11.00;99.90;;;;;;5004100;28;20224;-67
2022/08/23 04:49:45;;;;;;;2.30;0.60;;;10.90;99.90;;;;;;5004539;28;20325;-67
2022/08/23 04:52:16;;;;;;;2.35;0.60;;;11.00;99.90;;;;;;5005580;28;20226;-67
2022/08/23 04:54:47;;;;;;;3.08;0.70;;;10.90;99.90;;;;;;5001205;28;20195;-66
2022/08/23 04:57:20;;;;;;;3.60;0.70;;;10.90;99.90;;;;;;5003746;28;20195;-68
2022/08/23 04:59:51;;;;;;;1.05;0.57;;;10.80;99.90;;;;;;5006426;28;20199;-69
2022/08/23 05:02:21;;;;;;;17.13;8.13;;;10.80;99.90;;;;;;5006612;28;20199;-67
2022/08/23 05:04:52;;;;;;;47.08;25.95;;;10.70;99.90;;;;;;5003896;28;20535;-68
2022/08/23 05:07:23;;;;;;;6.93;3.70;;;10.70;99.90;;;;;;5003396;28;20275;-78
2022/08/23 05:09:54;;;;;;;9.48;3.13;;;10.70;99.90;;;;;;5003366;28;20194;-80
2022/08/23 05:12:28;;;;;;;2.05;1.10;;;10.60;99.90;;;;;;5002455;28;20296;-78
2022/08/23 05:14:59;;;;;;;3.40;1.00;;;10.50;99.90;;;;;;5004087;28;20214;-67
2022/08/23 05:17:30;;;;;;;1.73;0.70;;;10.50;99.90;;;;;;5005567;28;20217;-76
2022/08/23 05:20:00;;;;;;;3.15;0.90;;;10.40;99.90;;;;;;5004020;28;20187;-68
2022/08/23 05:22:34;;;;;;;4.13;0.60;;;10.40;99.90;;;;;;5005083;28;20229;-77
2022/08/23 05:25:05;;;;;;;2.88;0.60;;;10.30;99.90;;;;;;5006340;28;20203;-78
2022/08/23 05:27:38;;;;;;;1.00;0.43;;;10.30;99.90;;;;;;5003956;28;20271;-68
2022/08/23 05:30:10;;;;;;;0.88;0.50;;;10.30;99.90;;;;;;5007650;28;20203;-77
2022/08/23 05:32:41;;;;;;;2.22;0.70;;;10.30;99.90;;;;;;5008670;28;20639;-78
2022/08/23 05:35:12;;;;;;;2.30;0.50;;;10.30;99.90;;;;;;5008414;28;20302;-67
2022/08/23 05:37:43;;;;;;;1.98;0.63;;;10.30;99.90;;;;;;5008734;28;20235;-68
2022/08/23 05:40:14;;;;;;;2.22;0.57;;;10.40;99.90;;;;;;5013879;28;20199;-68
2022/08/23 05:42:46;;;;;;;4.88;0.65;;;10.30;99.90;;;;;;5010774;28;20195;-68
2022/08/23 05:45:17;;;;;;;3.83;0.40;;;10.30;99.90;;;;;;5014449;28;20199;-70
2022/08/23 05:47:48;;;;;;;0.60;0.40;;;10.40;99.90;;;;;;5012562;28;20194;-74
2022/08/23 05:50:19;;;;;;;1.00;0.50;;;10.30;99.90;;;;;;5013586;28;20222;-72
2022/08/23 05:52:50;;;;;;;1.05;0.57;;;10.30;99.90;;;;;;5013151;28;20199;-69
2022/08/23 05:55:21;;;;;;;1.95;0.43;;;10.20;99.90;;;;;;5011383;28;20230;-68
2022/08/23 05:57:53;;;;;;;1.45;0.40;;;10.20;99.90;;;;;;5013739;28;20206;-68
2022/08/23 06:00:24;;;;;;;2.63;0.50;;;10.20;99.90;;;;;;5013932;28;20631;-68
2022/08/23 06:02:55;;;;;;;0.73;0.60;;;10.20;99.90;;;;;;5012278;28;20543;-69
2022/08/23 06:05:26;;;;;;;2.67;0.60;;;10.10;99.90;;;;;;5013939;28;20690;-68
2022/08/23 06:07:57;;;;;;;1.10;0.80;;;10.00;99.90;;;;;;5013856;28;20201;-68
2022/08/23 06:10:29;;;;;;;1.75;0.60;;;10.00;99.90;;;;;;5014078;28;20183;-69
2022/08/23 06:13:03;;;;;;;1.52;0.80;;;10.10;99.90;;;;;;5013314;28;20191;-69
2022/08/23 06:15:33;;;;;;;0.82;0.57;;;10.10;99.90;;;;;;5007907;28;20215;-69
2022/08/23 06:18:04;;;;;;;2.58;0.60;;;10.00;99.90;;;;;;5013402;28;20199;-70
2022/08/23 06:20:35;;;;;;;0.40;0.40;;;10.00;99.90;;;;;;5013552;28;20220;-70
2022/08/23 06:23:09;;;;;;;0.85;0.52;;;10.00;99.90;;;;;;5011100;28;20236;-69
2022/08/23 06:25:40;;;;;;;0.85;0.55;;;9.90;99.90;;;;;;5012598;28;20250;-70
2022/08/23 06:28:12;;;;;;;1.80;0.52;;;9.90;99.90;;;;;;5013033;28;20195;-70
2022/08/23 06:30:43;;;;;;;2.58;0.70;;;9.80;99.90;;;;;;5013598;28;20639;-70
2022/08/23 06:33:16;;;;;;;1.52;0.50;;;9.80;99.90;;;;;;5013208;28;20892;-68
2022/08/23 06:35:46;;;;;;;1.92;0.47;;;9.80;99.90;;;;;;5013399;28;20578;-69
2022/08/23 06:38:17;;;;;;;2.38;0.60;;;9.80;99.90;;;;;;5013199;28;20237;-68
2022/08/23 06:40:48;;;;;;;1.90;0.60;;;9.80;99.90;;;;;;5013344;28;20195;-70
2022/08/23 06:43:21;;;;;;;0.93;0.60;;;9.80;99.90;;;;;;5012825;28;20187;-68
2022/08/23 06:45:52;;;;;;;2.65;0.70;;;9.80;99.90;;;;;;5012125;28;20198;-68
2022/08/23 06:48:22;;;;;;;0.95;0.70;;;9.80;99.90;;;;;;5012962;28;20667;-68
2022/08/23 06:50:53;;;;;;;0.60;0.60;;;9.80;99.90;;;;;;5013626;28;20195;-68
2022/08/23 06:53:24;;;;;;;0.50;0.50;;;9.80;99.90;;;;;;5005315;28;20191;-67
2022/08/23 06:55:55;;;;;;;2.10;0.60;;;9.80;99.90;;;;;;5013351;28;20236;-67
2022/08/23 06:58:28;;;;;;;1.05;0.60;;;9.80;99.90;;;;;;5013166;28;20198;-67
2022/08/23 07:01:09;;;;;;;2.95;0.50;;;9.80;99.90;;;;;;5013150;28;20194;-67
2022/08/23 07:03:40;;;;;;;1.15;0.40;;;9.80;99.90;;;;;;5013342;28;20189;-67
2022/08/23 07:06:11;;;;;;;0.43;0.43;;;9.80;99.90;;;;;;5011686;28;20206;-67
2022/08/23 07:08:42;;;;;;;2.78;0.57;;;9.80;99.90;;;;;;5013101;28;20554;-69
2022/08/23 07:11:12;;;;;;;1.02;0.50;;;9.80;99.90;;;;;;5012368;28;20195;-73
2022/08/23 07:13:45;;;;;;;1.98;0.50;;;9.80;99.90;;;;;;5012921;28;20195;-74
2022/08/23 07:16:16;;;;;;;1.10;0.60;;;9.80;99.90;;;;;;5012318;28;20210;-74
2022/08/23 07:18:48;;;;;;;0.65;0.50;;;9.80;99.90;;;;;;5012680;28;20675;-69
2022/08/23 07:21:19;;;;;;;0.30;0.30;;;9.80;99.90;;;;;;5012260;28;20561;-68
2022/08/23 07:23:50;;;;;;;1.20;0.90;;;9.80;99.90;;;;;;5008505;28;20189;-68
2022/08/23 07:26:21;;;;;;;0.98;0.70;;;9.80;99.90;;;;;;5011874;28;20253;-71
2022/08/23 07:28:54;;;;;;;2.55;0.75;;;9.80;99.90;;;;;;5012445;28;20264;-68
2022/08/23 07:31:27;;;;;;;0.73;0.60;;;9.80;99.90;;;;;;5012308;28;20187;-68
2022/08/23 07:34:00;;;;;;;1.15;0.77;;;9.80;99.90;;;;;;5010148;28;20203;-72
2022/08/23 07:36:32;;;;;;;0.88;0.60;;;9.70;99.90;;;;;;5012037;28;20234;-74
2022/08/23 07:39:03;;;;;;;1.67;0.63;;;9.80;99.90;;;;;;5006435;28;20207;-75
2022/08/23 07:41:34;;;;;;;1.13;0.77;;;9.80;99.90;;;;;;5011555;28;20670;-75
2022/08/23 07:44:08;;;;;;;2.42;0.70;;;9.70;99.90;;;;;;5010599;28;20261;-73
2022/08/23 07:46:41;;;;;;;1.20;0.80;;;9.80;99.90;;;;;;5012041;28;20654;-75
2022/08/23 07:49:13;;;;;;;0.70;0.60;;;9.80;99.90;;;;;;5011055;28;20203;-75
2022/08/23 07:51:47;;;;;;;1.25;0.60;;;9.70;99.90;;;;;;5010722;28;20199;-74
2022/08/23 07:54:18;;;;;;;3.30;0.80;;;9.70;99.90;;;;;;5010948;28;20253;-74
2022/08/23 07:56:49;;;;;;;1.48;0.63;;;9.70;99.90;;;;;;5009761;28;20219;-72
2022/08/23 07:59:22;;;;;;;0.75;0.70;;;9.70;99.90;;;;;;5009061;28;20198;-71
2022/08/23 08:01:53;;;;;;;1.48;0.50;;;9.70;99.90;;;;;;5011238;28;20238;-72
2022/08/23 08:04:23;;;;;;;0.82;0.80;;;9.60;99.90;;;;;;5010827;28;20209;-70
2022/08/23 08:06:55;;;;;;;2.78;0.70;;;9.50;99.90;;;;;;5009406;28;20195;-70
2022/08/23 08:09:25;;;;;;;1.48;0.80;;;9.50;99.90;;;;;;5011073;28;20608;-69
2022/08/23 08:11:56;;;;;;;1.05;0.80;;;9.40;99.90;;;;;;5011091;28;20199;-73
2022/08/23 08:14:29;;;;;;;1.05;0.80;;;9.40;99.90;;;;;;5008284;28;20206;-74
2022/08/23 08:17:00;;;;;;;1.30;0.80;;;9.40;99.90;;;;;;5008777;28;20262;-73
2022/08/23 08:19:30;;;;;;;1.60;0.80;;;9.30;99.90;;;;;;5011658;28;20655;-70
2022/08/23 08:22:01;;;;;;;1.50;0.95;;;9.30;99.90;;;;;;5008246;28;20558;-72
2022/08/23 08:24:32;;;;;;;1.73;1.00;;;9.20;99.90;;;;;;5005049;28;20206;-70
2022/08/23 08:27:03;;;;;;;0.82;0.77;;;9.20;99.90;;;;;;5009620;28;20198;-74
2022/08/23 08:29:35;;;;;;;1.02;0.93;;;9.10;99.90;;;;;;5011397;28;20194;-70
2022/08/23 08:32:07;;;;;;;1.42;1.00;;;9.10;99.90;;;;;;5011185;28;20203;-73
2022/08/23 08:34:39;;;;;;;1.13;0.90;;;9.00;99.90;;;;;;5010323;28;20199;-69
2022/08/23 08:37:10;;;;;;;1.13;0.93;;;9.00;99.90;;;;;;5004856;28;20849;-73
2022/08/23 08:39:44;;;;;;;1.77;1.00;;;9.00;99.90;;;;;;5010303;28;20670;-73
2022/08/23 08:42:28;;;;;;;1.05;0.85;;;8.90;99.90;;;;;;5010887;28;20206;-71
2022/08/23 08:45:03;;;;;;;1.15;0.95;;;8.90;99.90;;;;;;5009995;28;20591;-73
2022/08/23 08:47:40;;;;;;;1.00;0.90;;;8.80;99.90;;;;;;5010197;28;20194;-70
2022/08/23 08:50:22;;;;;;;3.03;0.90;;;8.80;99.90;;;;;;5007311;28;20269;-69
2022/08/23 08:52:56;;;;;;;1.60;1.00;;;8.80;99.90;;;;;;5014794;28;20230;-69
2022/08/23 08:55:30;;;;;;;1.02;0.70;;;8.80;99.90;;;;;;5011564;28;20253;-70
2022/08/23 08:58:02;;;;;;;0.73;0.50;;;8.80;99.90;;;;;;5011767;28;20533;-69
2022/08/23 09:00:39;;;;;;;0.50;0.50;;;8.70;99.90;;;;;;5014387;28;20587;-70
2022/08/23 09:03:15;;;;;;;1.13;0.70;;;8.70;99.90;;;;;;5013896;28;20209;-73
2022/08/23 09:05:56;;;;;;;1.00;0.82;;;8.70;99.90;;;;;;5009945;28;20572;-73
2022/08/23 09:08:46;;;;;;;0.70;0.60;;;8.70;99.90;;;;;;5007364;28;20195;-75
2022/08/23 09:11:30;;;;;;;1.73;0.70;;;8.60;99.90;;;;;;5011969;28;20203;-75
2022/08/23 09:14:20;;;;;;;1.60;0.65;;;8.60;99.90;;;;;;5012428;28;20561;-74
2022/08/23 09:16:56;;;;;;;0.70;0.70;;;8.60;99.90;;;;;;5012369;28;20221;-75
2022/08/23 09:19:28;;;;;;;1.10;0.80;;;8.60;99.90;;;;;;5009464;28;20201;-73
2022/08/23 09:22:02;;;;;;;1.42;0.70;;;8.60;99.90;;;;;;5010497;28;20219;-74
2022/08/23 09:24:33;;;;;;;0.65;0.60;;;8.50;99.90;;;;;;5007017;28;20674;-74
2022/08/23 09:27:04;;;;;;;0.70;0.70;;;8.50;99.90;;;;;;5012437;28;20207;-73
2022/08/23 09:29:37;;;;;;;1.73;0.60;;;8.50;99.90;;;;;;5015027;28;20184;-76
2022/08/23 09:32:27;;;;;;;1.10;0.70;;;8.60;99.90;;;;;;5012471;28;20203;-74
2022/08/23 09:35:10;;;;;;;1.48;0.60;;;8.50;99.90;;;;;;5013710;28;20207;-69
2022/08/23 09:37:56;;;;;;;1.60;0.80;;;8.50;99.90;;;;;;5007541;28;20238;-72
2022/08/23 09:40:36;;;;;;;1.50;0.85;;;8.50;99.90;;;;;;5013042;28;20191;-70
2022/08/23 09:43:25;;;;;;;1.00;0.63;;;8.50;99.90;;;;;;5014378;28;20282;-69
2022/08/23 09:46:03;;;;;;;0.70;0.60;;;8.40;99.90;;;;;;5010755;28;20203;-69
2022/08/23 09:48:42;;;;;;;0.68;0.68;;;8.40;99.90;;;;;;5009362;28;20195;-72
2022/08/23 09:51:20;;;;;;;0.90;0.70;;;8.40;99.90;;;;;;5013927;28;20187;-71
2022/08/23 09:53:54;;;;;;;1.73;0.80;;;8.40;99.90;;;;;;5008851;28;20187;-70
2022/08/23 09:56:28;;;;;;;0.93;0.70;;;8.40;99.90;;;;;;5014364;28;20192;-71
2022/08/23 09:58:59;;;;;;;1.30;0.82;;;8.40;99.90;;;;;;5013617;28;20229;-71
2022/08/23 10:01:33;;;;;;;0.90;0.80;;;8.30;99.90;;;;;;5012030;28;20206;-70
2022/08/23 10:04:14;;;;;;;0.82;0.77;;;8.30;99.90;;;;;;5009595;28;20248;-71
2022/08/23 10:06:47;;;;;;;0.85;0.70;;;8.30;99.90;;;;;;5013725;28;20241;-71
2022/08/23 10:09:26;;;;;;;1.17;0.77;;;8.20;99.90;;;;;;5013183;28;20195;-70
2022/08/23 10:11:58;;;;;;;1.23;0.60;;;8.30;99.90;;;;;;5013035;28;20274;-70
2022/08/23 10:14:32;;;;;;;0.68;0.60;;;8.20;99.90;;;;;;5013991;28;20195;-70
2022/08/23 10:17:10;;;;;;;1.45;0.70;;;8.20;99.90;;;;;;5011096;28;20221;-71
2022/08/23 10:19:51;;;;;;;1.70;0.60;;;8.10;99.90;;;;;;5011320;28;20205;-70
2022/08/23 10:22:24;;;;;;;3.35;0.70;;;8.20;99.90;;;;;;5007815;28;20611;-70
2022/08/23 10:25:02;;;;;;;1.50;0.50;;;8.20;99.90;;;;;;5011746;28;20211;-72
2022/08/23 10:30:38;;;;;;;0.90;0.70;;;8.10;99.90;;;;;;5011888;28;20206;-69
2022/08/23 10:33:15;;;;;;;2.60;0.60;;;8.10;99.90;;;;;;5011243;28;20657;-70
2022/08/23 10:35:53;;;;;;;0.90;0.75;;;8.10;99.90;;;;;;5013151;28;20203;-71
2022/08/23 10:38:44;;;;;;;0.68;0.68;;;8.00;99.90;;;;;;5011069;28;20694;-71
2022/08/23 10:41:45;;;;;;;1.70;0.70;;;8.00;99.90;;;;;;5008036;28;20647;-71
2022/08/23 10:44:35;;;;;;;1.15;0.80;;;8.00;99.90;;;;;;5011135;28;20214;-71
2022/08/23 10:47:18;;;;;;;3.15;0.63;;;8.00;99.90;;;;;;5007745;28;20195;-71
2022/08/23 10:49:52;;;;;;;1.17;0.63;;;8.00;99.90;;;;;;5010041;28;20258;-70
2022/08/23 10:52:29;;;;;;;0.63;0.52;;;8.00;99.90;;;;;;5009958;28;22141;-71
2022/08/23 10:55:15;;;;;;;1.00;0.60;;;8.00;99.90;;;;;;5005345;28;20248;-71
2022/08/23 10:57:49;;;;;;;1.98;0.73;;;8.00;99.90;;;;;;5010461;28;20733;-70
2022/08/23 11:00:23;;;;;;;1.58;0.77;;;8.00;99.90;;;;;;5009251;28;20282;-72
2022/08/23 11:02:59;;;;;;;0.80;0.80;;;8.00;99.90;;;;;;5011792;28;20194;-70
2022/08/23 11:05:31;;;;;;;1.63;0.80;;;8.00;99.90;;;;;;5012289;28;20206;-70
2022/08/23 11:08:06;;;;;;;0.82;0.73;;;8.00;99.90;;;;;;5011481;28;20195;-71
2022/08/23 11:10:49;;;;;;;0.90;0.70;;;8.00;99.90;;;;;;5011363;28;20194;-70
2022/08/23 11:13:26;;;;;;;1.03;0.70;;;8.00;99.90;;;;;;5007462;28;21064;-69
2022/08/23 11:16:02;;;;;;;0.80;0.68;;;7.90;99.90;;;;;;5006041;28;20197;-72
2022/08/23 11:18:42;;;;;;;0.80;0.68;;;7.90;99.90;;;;;;5005766;28;20245;-69
2022/08/23 11:21:32;;;;;;;1.13;0.85;;;8.00;99.90;;;;;;5006789;28;20198;-70
2022/08/23 11:24:35;;;;;;;1.13;1.03;;;7.90;99.90;;;;;;5006490;28;20199;-71
2022/08/23 11:27:08;;;;;;;1.35;0.90;;;7.90;99.90;;;;;;5004201;28;20565;-69
2022/08/23 11:29:47;;;;;;;2.88;0.73;;;8.00;99.90;;;;;;5007013;28;20197;-69
2022/08/23 11:32:44;;;;;;;0.73;0.70;;;7.90;99.90;;;;;;5002878;28;20202;-68
2022/08/23 11:35:39;;;;;;;1.48;0.80;;;8.00;99.90;;;;;;5007240;28;20226;-70
2022/08/23 11:38:10;;;;;;;2.80;0.70;;;8.00;99.90;;;;;;5008109;28;20245;-69
2022/08/23 11:41:07;;;;;;;1.58;0.70;;;8.00;99.90;;;;;;5004351;28;20188;-75
2022/08/23 11:43:40;;;;;;;1.02;0.70;;;8.00;99.90;;;;;;5006532;28;20217;-69
2022/08/23 11:46:41;;;;;;;0.73;0.70;;;8.00;99.90;;;;;;5004200;28;20290;-68
2022/08/23 11:49:49;;;;;;;1.55;0.80;;;8.00;99.90;;;;;;4999701;28;20208;-69
2022/08/23 11:52:33;;;;;;;1.52;0.80;;;8.00;99.90;;;;;;4997620;28;20210;-69
2022/08/23 11:55:29;;;;;;;1.75;0.85;;;8.00;99.90;;;;;;5005001;28;20201;-69
2022/08/23 11:58:24;;;;;;;1.63;0.80;;;8.10;99.90;;;;;;5002960;28;20226;-69
2022/08/23 12:01:07;;;;;;;1.75;0.98;;;8.10;99.90;;;;;;5006711;28;20195;-68
2022/08/23 12:03:45;;;;;;;2.70;0.90;;;8.10;99.90;;;;;;5006568;28;20203;-68
2022/08/23 12:06:43;;;;;;;1.33;0.90;;;8.10;99.90;;;;;;5003780;28;20202;-69
2022/08/23 12:09:37;;;;;;;2.05;0.95;;;8.10;99.90;;;;;;5006446;28;20257;-69
2022/08/23 12:12:25;;;;;;;2.70;0.90;;;8.10;99.90;;;;;;5003393;28;20214;-70
2022/08/23 12:15:00;;;;;;;0.90;0.80;;;8.10;99.90;;;;;;5004394;28;20195;-70
2022/08/23 12:18:15;;;;;;;4.15;1.00;;;8.10;99.90;;;;;;5006392;28;20671;-70
2022/08/23 12:20:48;;;;;;;2.47;1.00;;;8.20;99.90;;;;;;4949092;28;20201;-68
2022/08/23 12:23:22;;;;;;;2.30;0.90;;;8.20;99.90;;;;;;5001381;28;20218;-69
2022/08/23 12:26:10;;;;;;;2.88;0.80;;;8.20;99.90;;;;;;5002297;28;20194;-69
2022/08/23 12:28:47;;;;;;;2.30;0.90;;;8.20;99.90;;;;;;5005914;28;20187;-74
2022/08/23 12:31:33;;;;;;;5.10;0.93;;;8.20;99.90;;;;;;5007833;28;20198;-74
2022/08/23 12:34:20;;;;;;;3.72;0.90;;;8.30;99.90;;;;;;5006976;28;20191;-75
2022/08/23 12:37:01;;;;;;;1.85;0.73;;;8.30;99.90;;;;;;5003714;28;20238;-75
2022/08/23 12:39:35;;;;;;;1.50;0.85;;;8.30;99.90;;;;;;5003769;28;20206;-75
2022/08/23 12:42:12;;;;;;;1.92;0.90;;;8.30;99.90;;;;;;5009029;28;20654;-74
2022/08/23 12:44:44;;;;;;;1.90;0.80;;;8.30;99.90;;;;;;5007437;28;20281;-75
2022/08/23 12:47:20;;;;;;;2.22;0.77;;;8.30;99.90;;;;;;5008311;28;20212;-75
2022/08/23 12:50:02;;;;;;;1.95;0.90;;;8.30;99.90;;;;;;5010945;28;20553;-75
2022/08/23 12:52:35;;;;;;;2.35;0.90;;;8.30;99.90;;;;;;5009115;28;20203;-73
2022/08/23 12:55:14;;;;;;;2.13;1.00;;;8.30;99.90;;;;;;5009586;28;20190;-75
2022/08/23 12:57:47;;;;;;;1.83;1.00;;;8.30;99.90;;;;;;5010608;28;20230;-74
2022/08/23 13:00:24;;;;;;;1.23;0.90;;;8.30;99.90;;;;;;5010607;28;20200;-76
2022/08/23 13:03:02;;;;;;;4.40;1.25;;;8.40;99.90;;;;;;5009997;28;20199;-75
2022/08/23 13:05:44;;;;;;;1.13;0.85;;;8.40;99.90;;;;;;5009624;28;20202;-74
2022/08/23 13:08:24;;;;;;;2.17;1.05;;;8.40;99.90;;;;;;5009224;28;20203;-74
2022/08/23 13:10:55;;;;;;;3.55;1.20;;;8.40;99.90;;;;;;5009446;28;20965;-75
2022/08/23 13:13:28;;;;;;;3.90;1.20;;;8.40;99.90;;;;;;5010928;28;20198;-74
2022/08/23 13:16:00;;;;;;;2.70;1.20;;;8.40;99.90;;;;;;5006847;28;20195;-73
2022/08/23 13:18:42;;;;;;;1.85;1.05;;;8.40;99.90;;;;;;5007400;28;20215;-70
2022/08/23 13:21:36;;;;;;;1.83;0.98;;;8.40;99.90;;;;;;5008238;28;20195;-73
2022/08/23 13:24:35;;;;;;;2.33;1.20;;;8.50;99.90;;;;;;5007622;28;20192;-71
2022/08/23 13:27:22;;;;;;;4.38;1.38;;;8.50;99.90;;;;;;5006239;28;20199;-74
2022/08/23 13:29:58;;;;;;;2.70;1.20;;;8.50;99.90;;;;;;5002739;28;20188;-76
2022/08/23 13:32:41;;;;;;;3.08;0.90;;;8.50;99.90;;;;;;5008591;28;20653;-77
2022/08/23 13:35:36;;;;;;;1.90;1.05;;;8.50;99.90;;;;;;5005222;28;20196;-70
2022/08/23 13:38:17;;;;;;;2.35;0.90;;;8.50;99.90;;;;;;5006553;28;20656;-70
2022/08/23 13:40:59;;;;;;;1.30;1.05;;;8.60;99.90;;;;;;5008154;28;20195;-74
2022/08/23 13:43:34;;;;;;;3.38;1.10;;;8.60;99.90;;;;;;5005732;28;20208;-72
2022/08/23 13:46:17;;;;;;;2.38;0.93;;;8.60;99.90;;;;;;5003975;28;20195;-69